createdAt,value
2023-05-24T00:02:45.378Z,11.10
2023-05-24T00:07:47.272Z,11.10
2023-05-24T00:12:48.979Z,11.10
2023-05-24T00:17:50.934Z,11.10
2023-05-24T00:22:52.650Z,10.80
2023-05-24T00:27:54.411Z,10.80
2023-05-24T00:32:56.220Z,10.80
2023-05-24T00:37:58.163Z,10.80
2023-05-24T00:42:59.942Z,10.60
2023-05-24T00:48:02.082Z,10.70
2023-05-24T00:53:04.624Z,10.60
2023-05-24T00:58:06.491Z,10.60
2023-05-24T01:03:08.704Z,10.60
2023-05-24T01:08:22.858Z,10.40
2023-05-24T01:13:31.441Z,10.20
2023-05-24T01:18:45.998Z,10.10
2023-05-24T01:24:12.923Z,10.20
2023-05-24T01:29:16.231Z,10.20
2023-05-24T01:34:18.016Z,10.30
2023-05-24T01:39:21.669Z,10.30
2023-05-24T01:44:34.633Z,10.30
2023-05-24T01:49:46.568Z,10.20
2023-05-24T01:54:54.106Z,10.20
2023-05-24T01:59:57.377Z,10.30
2023-05-24T02:04:59.118Z,10.30
2023-05-24T02:10:00.893Z,10.30
2023-05-24T02:15:02.746Z,10.30
2023-05-24T02:20:04.872Z,10.20
2023-05-24T02:25:07.974Z,10.10
2023-05-24T02:30:10.672Z,10.30
2023-05-24T02:35:12.783Z,10.30
2023-05-24T02:40:14.565Z,10.40
2023-05-24T02:45:16.284Z,10.50
2023-05-24T02:50:18.116Z,10.40
2023-05-24T02:55:20.029Z,10.40
2023-05-24T03:00:21.916Z,10.40
2023-05-24T03:05:23.657Z,10.30
2023-05-24T03:10:25.522Z,10.20
2023-05-24T03:15:27.370Z,10.00
2023-05-24T03:20:29.167Z,9.90
2023-05-24T03:25:31.019Z,9.90
2023-05-24T03:30:33.461Z,9.70
2023-05-24T03:35:35.334Z,9.70
2023-05-24T03:40:37.148Z,9.70
2023-05-24T03:45:39.987Z,9.70
2023-05-24T03:50:42.110Z,9.80
2023-05-24T03:55:44.310Z,9.70
2023-05-24T04:00:46.216Z,9.90
2023-05-24T04:05:48.003Z,9.70
2023-05-24T04:10:49.745Z,10.00
2023-05-24T04:15:51.494Z,9.90
2023-05-24T04:20:53.260Z,9.90
2023-05-24T04:25:55.076Z,10.10
2023-05-24T04:30:57.729Z,10.00
2023-05-24T04:36:01.860Z,10.00
2023-05-24T04:41:03.752Z,10.10
2023-05-24T04:46:06.941Z,10.10
2023-05-24T04:51:10.671Z,10.10
2023-05-24T04:56:14.933Z,10.10
2023-05-24T05:01:17.740Z,10.30
2023-05-24T05:06:19.481Z,10.30
2023-05-24T05:11:21.305Z,10.10
2023-05-24T05:16:23.163Z,10.20
2023-05-24T05:21:25.028Z,10.20
2023-05-24T05:26:27.998Z,10.40
2023-05-24T05:31:31.087Z,10.40
2023-05-24T05:36:32.854Z,10.70
2023-05-24T05:41:35.761Z,10.60
2023-05-24T05:46:37.664Z,10.80
2023-05-24T05:51:39.448Z,10.40
2023-05-24T05:56:48.002Z,10.80
2023-05-24T06:01:50.404Z,10.70
2023-05-24T06:06:52.137Z,10.80
2023-05-24T06:11:53.901Z,11.30
2023-05-24T06:16:57.300Z,11.50
2023-05-24T06:22:00.201Z,11.70
2023-05-24T06:27:04.011Z,12.20
2023-05-24T06:32:07.153Z,12.10
2023-05-24T06:37:10.470Z,12.10
2023-05-24T06:42:12.249Z,12.20
2023-05-24T06:47:14.056Z,12.10
2023-05-24T06:52:16.194Z,12.90
2023-05-24T06:57:17.952Z,12.20
2023-05-24T07:02:24.107Z,12.10
2023-05-24T07:07:26.750Z,12.60
2023-05-24T07:12:28.531Z,12.50
2023-05-24T07:17:30.411Z,12.10
2023-05-24T07:22:32.196Z,11.90
2023-05-24T07:27:33.894Z,12.00
2023-05-24T07:32:35.789Z,12.70
2023-05-24T07:37:37.697Z,12.60
2023-05-24T07:42:39.606Z,12.90
2023-05-24T07:47:41.582Z,12.50
2023-05-24T07:52:43.720Z,12.40
2023-05-24T07:57:45.485Z,12.30
2023-05-24T08:02:47.360Z,12.20
2023-05-24T08:07:49.203Z,12.20
2023-05-24T08:12:54.672Z,12.60
2023-05-24T08:17:56.879Z,12.60
2023-05-24T08:22:58.882Z,13.10
2023-05-24T08:28:01.133Z,13.60
2023-05-24T08:33:03.269Z,13.30
2023-05-24T08:38:05.153Z,13.30
2023-05-24T08:43:11.949Z,13.40
2023-05-24T08:48:14.552Z,13.70
2023-05-24T08:53:16.878Z,14.60
2023-05-24T08:58:19.116Z,14.20
2023-05-24T09:03:21.809Z,13.40
2023-05-24T09:08:24.081Z,13.20
2023-05-24T09:13:27.870Z,13.70
2023-05-24T09:18:29.773Z,13.90
2023-05-24T09:23:32.144Z,14.70
2023-05-24T09:28:33.944Z,15.30
2023-05-24T09:33:36.044Z,14.60
2023-05-24T09:38:37.867Z,14.30
2023-05-24T09:43:50.018Z,14.70
2023-05-24T09:49:03.855Z,14.50
2023-05-24T09:54:05.989Z,14.50
2023-05-24T09:59:08.971Z,15.00
2023-05-24T10:04:10.801Z,15.70
2023-05-24T10:09:14.033Z,14.50
2023-05-24T10:14:18.048Z,15.10
2023-05-24T10:19:19.900Z,15.00
2023-05-24T10:24:27.513Z,14.10
2023-05-24T10:29:45.882Z,14.70
2023-05-24T10:34:48.983Z,14.50
2023-05-24T10:39:50.716Z,14.90
2023-05-24T10:44:52.810Z,15.10
2023-05-24T10:49:59.769Z,15.90
2023-05-24T10:55:05.155Z,15.30
2023-05-24T11:05:56.804Z,14.90
2023-05-24T11:11:23.102Z,15.70
2023-05-24T11:16:40.370Z,16.10
2023-05-24T11:21:48.045Z,16.50
2023-05-24T11:26:50.794Z,15.90
2023-05-24T11:31:55.285Z,15.40
2023-05-24T11:36:57.369Z,16.70
2023-05-24T11:42:00.025Z,16.70
2023-05-24T11:47:03.080Z,16.50
2023-05-24T11:52:05.001Z,16.20
2023-05-24T11:57:06.910Z,16.00
2023-05-24T12:02:11.480Z,15.40
2023-05-24T12:07:13.331Z,15.50
2023-05-24T12:12:15.891Z,15.20
2023-05-24T12:17:17.637Z,15.00
2023-05-24T12:22:19.565Z,15.40
2023-05-24T12:27:27.511Z,15.90
2023-05-24T12:32:29.438Z,15.90
2023-05-24T12:37:31.725Z,16.90
2023-05-24T12:42:33.603Z,17.10
2023-05-24T12:47:35.423Z,16.90
2023-05-24T12:52:37.196Z,18.00
2023-05-24T12:57:38.933Z,17.70
2023-05-24T13:02:40.824Z,16.50
2023-05-24T13:07:45.358Z,16.80
2023-05-24T13:12:47.249Z,16.00
2023-05-24T13:17:49.086Z,16.00
2023-05-24T13:22:51.281Z,16.00
2023-05-24T13:27:53.306Z,16.50
2023-05-24T13:32:56.862Z,16.30
2023-05-24T13:37:58.778Z,17.00
2023-05-24T13:43:00.686Z,17.90
2023-05-24T13:48:05.995Z,17.70
2023-05-24T13:53:08.189Z,17.10
2023-05-24T13:58:10.522Z,16.50
2023-05-24T14:03:13.077Z,16.20
2023-05-24T14:08:14.914Z,16.90
2023-05-24T14:13:45.375Z,17.10
2023-05-24T14:18:38.646Z,16.70
2023-05-24T14:23:40.357Z,16.40
2023-05-24T14:28:42.050Z,16.50
2023-05-24T14:33:43.827Z,17.10
2023-05-24T14:38:45.588Z,16.90
2023-05-24T14:43:47.322Z,17.60
2023-05-24T14:48:49.033Z,18.10
2023-05-24T14:53:51.804Z,18.00
2023-05-24T14:58:55.131Z,17.20
2023-05-24T15:04:01.172Z,16.80
2023-05-24T15:09:04.034Z,16.60
2023-05-24T15:14:06.236Z,16.80
2023-05-24T15:19:10.139Z,18.20
2023-05-24T15:24:13.462Z,18.20
2023-05-24T15:29:16.807Z,18.30
2023-05-24T15:34:23.662Z,17.50
2023-05-24T15:39:26.112Z,19.90
2023-05-24T15:44:27.932Z,18.80
2023-05-24T15:49:29.746Z,18.30
2023-05-24T15:54:32.104Z,18.20
2023-05-24T15:59:36.975Z,17.50
2023-05-24T16:04:44.591Z,17.40
2023-05-24T16:09:46.913Z,17.80
2023-05-24T16:14:48.803Z,18.70
2023-05-24T16:19:52.289Z,17.50
2023-05-24T16:24:54.229Z,17.20
2023-05-24T16:29:55.949Z,17.90
2023-05-24T16:34:57.684Z,17.40
2023-05-24T16:40:00.515Z,18.30
2023-05-24T16:45:02.731Z,17.70
2023-05-24T16:50:04.853Z,16.70
2023-05-24T16:55:06.941Z,16.40
2023-05-24T17:00:09.761Z,16.30
2023-05-24T17:05:11.666Z,16.30
2023-05-24T17:10:13.413Z,16.20
2023-05-24T17:15:15.742Z,16.20
2023-05-24T17:20:17.552Z,16.80
2023-05-24T17:25:19.371Z,17.50
2023-05-24T17:30:21.130Z,17.90
2023-05-24T17:35:23.248Z,18.70
2023-05-24T17:40:25.527Z,18.70
2023-05-24T17:45:27.336Z,18.20
2023-05-24T17:50:29.068Z,17.00
2023-05-24T17:55:31.044Z,16.70
2023-05-24T18:00:32.748Z,16.30
2023-05-24T18:05:34.508Z,16.10
2023-05-24T18:10:36.287Z,16.20
2023-05-24T18:15:38.041Z,16.00
2023-05-24T18:20:39.863Z,15.70
2023-05-24T18:25:43.721Z,15.50
2023-05-24T18:30:46.010Z,15.30
2023-05-24T18:35:47.750Z,15.20
2023-05-24T18:40:49.504Z,15.00
2023-05-24T18:45:51.277Z,14.90
2023-05-24T18:50:53.846Z,14.70
2023-05-24T18:55:55.837Z,14.60
2023-05-24T19:00:57.764Z,14.50
2023-05-24T19:05:59.543Z,14.30
2023-05-24T19:11:01.788Z,14.20
2023-05-24T19:16:03.631Z,14.10
2023-05-24T19:21:05.399Z,14.10
2023-05-24T19:26:07.223Z,13.80
2023-05-24T19:31:08.958Z,13.80
2023-05-24T19:36:10.890Z,13.70
2023-05-24T19:41:12.658Z,13.70
2023-05-24T19:46:14.775Z,13.50
2023-05-24T19:51:17.030Z,13.50
2023-05-24T19:56:19.464Z,13.30
2023-05-24T20:01:21.293Z,13.30
2023-05-24T20:06:23.079Z,13.20
2023-05-24T20:11:24.822Z,13.10
2023-05-24T20:16:27.408Z,12.90
2023-05-24T20:21:29.203Z,12.80
2023-05-24T20:26:33.107Z,12.80
2023-05-24T20:31:34.892Z,12.70
2023-05-24T20:36:36.837Z,12.60
2023-05-24T20:41:38.623Z,12.60
2023-05-24T20:46:41.243Z,12.60
2023-05-24T20:51:42.980Z,12.70
2023-05-24T20:56:44.708Z,12.60
2023-05-24T21:01:46.506Z,12.60
2023-05-24T21:06:48.300Z,12.50
2023-05-24T21:11:50.030Z,12.40
2023-05-24T21:16:51.772Z,12.40
2023-05-24T21:21:53.520Z,12.20
2023-05-24T21:26:55.290Z,12.20
2023-05-24T21:31:57.079Z,12.10
2023-05-24T21:36:58.836Z,11.90
2023-05-24T21:42:02.102Z,11.90
2023-05-24T21:47:04.162Z,12.00
2023-05-24T21:52:05.917Z,12.00
2023-05-24T21:57:07.654Z,11.90
2023-05-24T22:02:09.435Z,11.70
2023-05-24T22:07:11.219Z,11.60
2023-05-24T22:12:13.095Z,11.50
2023-05-24T22:17:16.351Z,11.40
2023-05-24T22:22:19.530Z,11.30
2023-05-24T22:27:21.383Z,11.20
2023-05-24T22:32:23.202Z,11.10
2023-05-24T22:37:25.004Z,11.10
2023-05-24T22:42:26.731Z,11.10
2023-05-24T22:47:28.822Z,10.90
2023-05-24T22:52:33.642Z,10.80
2023-05-24T22:57:35.475Z,10.80
2023-05-24T23:02:37.778Z,10.80
2023-05-24T23:07:39.916Z,10.70
2023-05-24T23:12:42.130Z,10.60
2023-05-24T23:17:44.424Z,10.60
2023-05-24T23:22:46.730Z,10.50
2023-05-24T23:27:48.463Z,10.50
2023-05-24T23:32:50.452Z,10.40
2023-05-24T23:37:53.760Z,10.40
2023-05-24T23:42:55.951Z,10.40
2023-05-24T23:47:58.269Z,10.40
2023-05-24T23:53:00.033Z,10.50
2023-05-24T23:58:01.741Z,10.50
